Time;durP1;ratioP1;P1;durP2;ratioP2;P2;SDS_P1;SDS_P2;PMS_P1;PMS_P2;Temp;Humidity;BMP_temperature;BMP_pressure;BME280_temperature;BME280_humidity;BME280_pressure;Samples;Min_cycle;Max_cycle;Signal;HPM_P1;HPM_P2
2022/05/15 00:02:23;;;;;;;24.13;4.68;;;;;;;10.26;55.86;101505.97;5034770;28;20172;-70
2022/05/15 00:04:50;;;;;;;20.25;4.57;;;;;;;10.21;55.98;101505.56;5034120;28;20049;-70
2022/05/15 00:07:16;;;;;;;12.23;4.32;;;;;;;10.18;56.29;101513.03;5034057;28;20061;-70
2022/05/15 00:09:43;;;;;;;12.82;4.68;;;;;;;10.11;56.68;101514.56;5034109;28;20045;-70
2022/05/15 00:12:09;;;;;;;12.55;4.97;;;;;;;10.04;57.06;101511.59;5034383;28;20092;-70
2022/05/15 00:14:36;;;;;;;13.43;4.82;;;;;;;10.02;57.05;101516.22;5038565;28;20111;-70
2022/05/15 00:17:03;;;;;;;16.00;5.40;;;;;;;9.97;57.30;101510.44;5037767;28;20136;-70
2022/05/15 00:19:29;;;;;;;12.40;4.70;;;;;;;9.90;57.43;101520.03;5037803;28;20140;-70
2022/05/15 00:21:56;;;;;;;13.10;5.35;;;;;;;9.87;57.76;101515.78;5037862;28;20113;-71
2022/05/15 00:24:22;;;;;;;15.02;4.43;;;;;;;9.81;58.02;101513.63;5038322;28;20076;-70
2022/05/15 00:26:49;;;;;;;15.35;4.57;;;;;;;9.74;58.32;101516.00;5037607;28;20140;-71
2022/05/15 00:29:15;;;;;;;14.77;5.25;;;;;;;9.70;58.54;101519.94;5036823;28;20053;-70
2022/05/15 00:31:42;;;;;;;13.50;4.97;;;;;;;9.72;58.31;101512.63;5036610;28;20081;-70
2022/05/15 00:34:08;;;;;;;13.98;4.75;;;;;;;9.66;58.66;101517.66;5036703;28;20136;-71
2022/05/15 00:36:35;;;;;;;14.25;4.90;;;;;;;9.56;58.92;101521.16;5037452;28;20080;-70
2022/05/15 00:39:02;;;;;;;15.20;5.45;;;;;;;9.57;58.85;101520.16;5036821;28;20133;-71
2022/05/15 00:41:29;;;;;;;22.30;4.93;;;;;;;9.57;58.89;101519.31;5036879;28;20147;-71
2022/05/15 00:43:57;;;;;;;20.02;5.47;;;;;;;9.49;59.24;101516.47;5036474;28;20140;-71
2022/05/15 00:46:30;;;;;;;12.20;5.10;;;;;;;9.44;59.32;101522.22;5036767;28;20145;-70
2022/05/15 00:48:59;;;;;;;16.63;4.50;;;;;;;9.42;59.25;101513.47;5036542;28;20046;-70
2022/05/15 00:51:29;;;;;;;13.73;4.30;;;;;;;9.40;59.11;101520.78;5036176;28;20049;-70
2022/05/15 00:54:08;;;;;;;16.02;4.40;;;;;;;9.38;59.15;101514.72;5037225;28;20084;-71
2022/05/15 00:56:40;;;;;;;16.85;5.45;;;;;;;9.53;58.42;101513.38;5018669;28;20049;-71
2022/05/15 00:59:12;;;;;;;17.45;4.53;;;;;;;9.38;58.82;101511.19;5035938;28;20096;-70
2022/05/15 01:01:39;;;;;;;14.68;4.53;;;;;;;9.31;58.52;101518.91;5036127;28;20055;-70
2022/05/15 01:04:05;;;;;;;12.00;3.65;;;;;;;9.32;58.63;101515.25;5036212;28;20053;-71
2022/05/15 01:07:24;;;;;;;14.57;4.20;;;;;;;9.33;58.57;101519.63;5035972;28;20088;-70
2022/05/15 01:09:52;;;;;;;14.48;3.83;;;;;;;9.31;58.52;101522.44;5035977;28;20085;-71
2022/05/15 01:12:18;;;;;;;12.90;4.18;;;;;;;9.28;59.05;101521.84;5036131;28;20137;-71
2022/05/15 01:14:47;;;;;;;10.85;3.92;;;;;;;9.25;59.22;101524.78;5036056;28;20056;-70
2022/05/15 01:17:14;;;;;;;14.00;3.90;;;;;;;9.26;58.96;101521.97;5035714;28;20144;-70
2022/05/15 01:19:42;;;;;;;12.23;4.30;;;;;;;9.25;58.78;101530.16;5035950;28;20452;-71
2022/05/15 01:22:15;;;;;;;13.75;3.80;;;;;;;9.25;59.10;101527.47;5035812;28;20459;-70
2022/05/15 01:24:42;;;;;;;13.00;3.83;;;;;;;9.19;59.42;101531.47;5034489;28;20088;-71
2022/05/15 01:27:12;;;;;;;15.70;3.80;;;;;;;9.15;59.39;101527.38;5035667;28;20081;-71
2022/05/15 01:29:44;;;;;;;14.15;4.38;;;;;;;9.09;59.63;101525.22;5036056;28;20084;-71
2022/05/15 01:32:12;;;;;;;14.70;4.03;;;;;;;9.06;59.84;101523.66;5035716;28;20136;-70
2022/05/15 01:34:40;;;;;;;14.13;4.22;;;;;;;9.04;60.06;101524.78;5036060;28;20422;-71
2022/05/15 01:37:08;;;;;;;18.13;4.80;;;;;;;9.06;59.95;101530.84;5035671;28;20045;-71
2022/05/15 01:39:35;;;;;;;12.45;4.18;;;;;;;8.95;60.04;101529.06;5035745;28;20107;-70
2022/05/15 01:42:03;;;;;;;16.75;4.57;;;;;;;8.93;60.20;101531.03;5035330;28;20144;-71
2022/05/15 01:44:31;;;;;;;14.52;4.85;;;;;;;8.84;60.53;101531.81;5035477;28;20071;-71
2022/05/15 01:46:58;;;;;;;19.13;4.63;;;;;;;8.82;60.60;101528.44;5035244;28;20131;-72
2022/05/15 01:49:25;;;;;;;17.08;5.07;;;;;;;8.77;60.62;101534.13;5035501;28;20463;-72
2022/05/15 01:51:51;;;;;;;14.35;3.95;;;;;;;8.73;60.66;101534.53;5035572;28;20457;-72
2022/05/15 01:54:18;;;;;;;13.60;3.80;;;;;;;8.72;60.76;101538.19;5034804;28;20054;-71
2022/05/15 01:56:44;;;;;;;11.73;4.32;;;;;;;8.68;60.79;101531.38;5035378;28;20469;-72
2022/05/15 01:59:11;;;;;;;11.55;4.10;;;;;;;8.63;61.10;101536.28;5034988;28;20077;-72
2022/05/15 02:01:38;;;;;;;13.30;4.43;;;;;;;8.56;61.37;101539.44;5035383;28;20063;-72
2022/05/15 02:04:07;;;;;;;15.68;4.30;;;;;;;8.55;61.15;101534.25;5035189;28;20084;-72
2022/05/15 02:06:35;;;;;;;9.82;3.85;;;;;;;8.55;61.13;101542.28;5035650;28;20380;-71
2022/05/15 02:09:02;;;;;;;18.98;4.30;;;;;;;8.46;61.45;101537.66;5035274;28;20549;-72
2022/05/15 02:11:29;;;;;;;15.80;4.82;;;;;;;8.44;61.73;101537.81;5035230;28;20059;-72
2022/05/15 02:13:55;;;;;;;13.45;4.00;;;;;;;8.43;61.63;101538.75;5035763;28;20141;-72
2022/05/15 02:16:22;;;;;;;18.70;4.88;;;;;;;8.39;61.68;101537.31;5035043;28;20088;-72
2022/05/15 02:18:49;;;;;;;14.90;4.50;;;;;;;8.39;61.56;101540.00;5034808;28;20056;-72
2022/05/15 02:21:15;;;;;;;15.70;4.65;;;;;;;8.36;61.83;101538.44;5034725;28;20508;-72
2022/05/15 02:23:42;;;;;;;12.35;4.50;;;;;;;8.32;61.74;101541.47;5034702;28;20499;-72
2022/05/15 02:26:08;;;;;;;19.55;4.72;;;;;;;8.30;61.99;101533.59;5034869;28;20076;-71
2022/05/15 02:28:36;;;;;;;17.40;4.40;;;;;;;8.24;62.16;101543.94;5034912;28;20077;-71
2022/05/15 02:31:03;;;;;;;14.32;4.50;;;;;;;8.21;62.27;101539.69;5034845;28;20117;-71
2022/05/15 02:33:31;;;;;;;13.52;4.30;;;;;;;8.17;62.44;101534.72;5034620;28;20052;-71
2022/05/15 02:35:58;;;;;;;9.60;4.00;;;;;;;8.16;62.50;101541.91;5016857;28;20103;-71
2022/05/15 02:38:24;;;;;;;13.25;4.70;;;;;;;8.10;62.45;101547.72;5035348;28;20124;-72
2022/05/15 02:40:51;;;;;;;17.67;4.75;;;;;;;8.09;62.59;101544.22;5035110;28;20136;-71
2022/05/15 02:43:17;;;;;;;18.63;5.13;;;;;;;8.07;62.64;101542.63;5035376;28;20100;-71
2022/05/15 02:45:44;;;;;;;15.50;4.70;;;;;;;8.02;62.83;101545.69;5034687;28;20103;-71
2022/05/15 02:51:03;;;;;;;15.52;4.50;;;;;;;8.00;62.87;101552.13;5034956;28;20049;-72
2022/05/15 02:51:03;;;;;;;11.95;4.03;;;;;;;7.94;63.51;101542.75;5035294;28;20136;-72
2022/05/15 02:53:31;;;;;;;13.80;4.43;;;;;;;7.89;63.65;101544.97;5034635;28;20053;-71
2022/05/15 02:55:58;;;;;;;15.75;5.07;;;;;;;7.83;63.83;101540.91;5034832;28;20145;-72
2022/05/15 02:58:24;;;;;;;11.50;4.40;;;;;;;7.85;63.96;101538.16;5034662;28;20085;-72
2022/05/15 03:00:51;;;;;;;12.77;4.43;;;;;;;7.84;64.13;101542.63;5034196;28;20144;-71
2022/05/15 03:03:17;;;;;;;12.25;4.40;;;;;;;7.80;64.34;101540.31;5034288;28;20059;-71
2022/05/15 03:05:44;;;;;;;11.63;4.68;;;;;;;7.77;64.48;101548.56;5034297;28;20050;-71
2022/05/15 03:08:10;;;;;;;16.88;4.47;;;;;;;7.78;64.54;101544.94;5034266;28;20059;-71
2022/05/15 03:10:37;;;;;;;16.27;4.82;;;;;;;7.79;64.56;101549.31;5034942;28;20116;-70
2022/05/15 03:13:03;;;;;;;9.15;4.47;;;;;;;7.75;64.65;101545.19;5036734;28;20144;-70
2022/05/15 03:15:30;;;;;;;14.85;5.00;;;;;;;7.75;64.62;101551.38;5036953;28;20073;-71
2022/05/15 03:17:56;;;;;;;14.95;4.97;;;;;;;7.75;64.69;101558.53;5036375;28;20050;-70
2022/05/15 03:20:27;;;;;;;17.10;4.32;;;;;;;7.73;64.62;101555.13;5037690;28;20549;-72
2022/05/15 03:22:54;;;;;;;12.77;4.03;;;;;;;7.69;64.61;101553.66;5032412;28;20085;-71
2022/05/15 03:25:22;;;;;;;17.75;4.85;;;;;;;7.73;64.59;101557.78;5037307;28;20088;-71
2022/05/15 03:27:48;;;;;;;17.00;4.65;;;;;;;7.73;64.57;101552.44;5037559;28;20128;-71
2022/05/15 03:30:15;;;;;;;14.02;4.45;;;;;;;7.74;64.47;101556.81;5037457;28;20046;-71
2022/05/15 03:32:42;;;;;;;14.20;5.70;;;;;;;7.74;64.60;101565.69;5037606;28;20068;-71
2022/05/15 03:35:09;;;;;;;18.40;5.50;;;;;;;7.74;64.45;101564.81;5037387;28;20049;-71
2022/05/15 03:37:35;;;;;;;11.93;4.88;;;;;;;7.74;64.30;101563.03;5037444;28;20085;-71
2022/05/15 03:40:02;;;;;;;17.05;4.90;;;;;;;7.75;64.37;101571.88;5037073;28;20049;-71
2022/05/15 03:42:29;;;;;;;15.55;4.95;;;;;;;7.74;64.27;101557.69;5037105;28;20045;-71
2022/05/15 03:44:55;;;;;;;18.77;5.15;;;;;;;7.78;64.04;101563.63;5037321;28;20053;-71
2022/05/15 03:47:22;;;;;;;21.35;4.97;;;;;;;7.80;64.30;101564.34;5036879;28;20045;-71
2022/05/15 03:49:50;;;;;;;18.98;5.88;;;;;;;7.82;63.93;101567.75;5040786;28;20056;-71
2022/05/15 03:52:17;;;;;;;12.30;4.63;;;;;;;7.84;64.10;101568.50;5040670;28;20096;-71
2022/05/15 03:54:44;;;;;;;15.68;4.95;;;;;;;7.87;63.93;101570.94;5040745;28;20519;-71
2022/05/15 03:57:11;;;;;;;14.23;4.53;;;;;;;7.91;63.54;101575.06;5040175;28;20100;-71
2022/05/15 03:59:40;;;;;;;11.63;4.18;;;;;;;7.94;63.36;101572.16;5040521;28;20077;-71
2022/05/15 04:02:09;;;;;;;15.38;4.63;;;;;;;7.88;63.69;101572.63;5041004;28;20060;-71
2022/05/15 04:04:36;;;;;;;18.33;4.45;;;;;;;7.91;63.33;101577.72;5039904;28;20454;-71
2022/05/15 04:07:07;;;;;;;13.40;4.75;;;;;;;7.92;63.39;101579.44;5040230;28;20049;-71
2022/05/15 04:09:36;;;;;;;17.67;4.70;;;;;;;7.91;63.21;101580.41;5040335;28;20053;-71
2022/05/15 04:12:02;;;;;;;13.00;4.32;;;;;;;7.95;63.18;101587.22;5041182;28;20080;-71
2022/05/15 04:14:30;;;;;;;17.42;5.57;;;;;;;8.22;62.05;101591.31;5040604;28;20096;-71
2022/05/15 04:16:56;;;;;;;13.00;4.63;;;;;;;8.02;63.15;101592.91;5040699;28;20112;-71
2022/05/15 04:19:23;;;;;;;15.40;4.75;;;;;;;9.95;56.90;101600.84;5040461;28;20435;-71
2022/05/15 04:21:50;;;;;;;16.88;5.15;;;;;;;10.60;55.60;101593.31;5040415;28;20100;-71
2022/05/15 04:24:17;;;;;;;14.55;4.57;;;;;;;11.16;52.81;101590.78;5040717;28;20046;-72
2022/05/15 04:26:46;;;;;;;15.27;4.57;;;;;;;9.35;56.80;101599.84;5040861;28;20107;-71
2022/05/15 04:29:13;;;;;;;13.98;4.57;;;;;;;8.29;61.63;101605.88;5040401;28;20038;-71
2022/05/15 04:31:39;;;;;;;19.80;4.72;;;;;;;8.22;62.23;101610.03;5039475;28;20434;-70
2022/05/15 04:34:06;;;;;;;12.48;3.85;;;;;;;8.19;62.31;101616.47;5038767;28;20053;-70
2022/05/15 04:36:34;;;;;;;16.42;4.30;;;;;;;8.23;62.48;101606.41;5038001;28;20085;-71
2022/05/15 04:39:02;;;;;;;12.13;3.72;;;;;;;10.77;54.63;101606.06;5038309;28;20084;-71
2022/05/15 04:41:29;;;;;;;12.50;3.90;;;;;;;8.73;60.30;101622.81;5039417;28;20139;-71
2022/05/15 04:43:56;;;;;;;14.40;4.60;;;;;;;8.29;62.08;101616.56;5039047;28;20081;-71
2022/05/15 04:46:25;;;;;;;10.32;4.47;;;;;;;8.34;62.02;101619.75;5038704;28;20061;-71
2022/05/15 04:48:52;;;;;;;13.27;4.72;;;;;;;8.41;61.92;101620.94;5039495;28;20057;-71
2022/05/15 04:51:19;;;;;;;14.73;4.18;;;;;;;8.46;61.95;101620.56;5040186;28;20084;-71
2022/05/15 04:53:45;;;;;;;13.27;3.92;;;;;;;8.51;61.62;101627.25;5037904;28;20133;-71
2022/05/15 04:56:12;;;;;;;15.52;3.85;;;;;;;8.57;61.73;101629.44;5037101;28;20525;-71
2022/05/15 04:58:38;;;;;;;14.23;4.55;;;;;;;8.57;61.61;101626.75;5036996;28;20147;-71
2022/05/15 05:01:05;;;;;;;16.88;3.97;;;;;;;8.64;61.37;101624.41;5036887;28;20057;-71
2022/05/15 05:03:31;;;;;;;12.68;3.38;;;;;;;8.68;61.22;101638.38;5036758;28;20053;-71
2022/05/15 05:05:58;;;;;;;14.95;3.03;;;;;;;8.73;60.90;101633.53;5036983;28;20063;-70
2022/05/15 05:08:24;;;;;;;9.95;3.15;;;;;;;8.77;61.13;101638.47;5036608;28;20168;-71
2022/05/15 05:10:51;;;;;;;12.57;3.60;;;;;;;8.84;60.49;101631.66;5036872;28;20144;-71
2022/05/15 05:13:17;;;;;;;12.13;3.63;;;;;;;8.96;60.33;101631.63;5036025;28;20144;-70
2022/05/15 05:15:44;;;;;;;9.27;3.20;;;;;;;8.98;59.98;101626.97;5036605;28;20385;-70
2022/05/15 05:18:15;;;;;;;13.82;3.80;;;;;;;9.00;59.75;101639.28;5036672;28;20049;-71
2022/05/15 05:20:43;;;;;;;12.85;3.13;;;;;;;9.08;59.23;101644.81;5036667;28;20085;-71
2022/05/15 05:23:11;;;;;;;10.13;3.05;;;;;;;9.05;59.50;101646.91;5036825;28;20472;-71
2022/05/15 05:25:38;;;;;;;12.57;2.80;;;;;;;9.13;59.25;101643.59;5036799;28;20551;-71
2022/05/15 05:28:05;;;;;;;14.10;3.20;;;;;;;9.12;59.41;101642.75;5036152;28;20113;-71
2022/05/15 05:30:32;;;;;;;13.02;2.92;;;;;;;9.17;59.50;101650.41;5035992;28;20057;-71
2022/05/15 05:32:58;;;;;;;14.68;3.28;;;;;;;9.17;59.41;101653.09;5036881;28;20050;-70
2022/05/15 05:35:27;;;;;;;16.25;3.22;;;;;;;9.25;58.90;101651.47;5035330;28;20092;-71
2022/05/15 05:37:53;;;;;;;16.33;3.28;;;;;;;9.30;58.77;101649.28;5035067;28;20136;-71
2022/05/15 05:40:20;;;;;;;10.23;3.30;;;;;;;9.30;59.01;101653.75;5036020;28;20053;-71
2022/05/15 05:42:47;;;;;;;13.77;3.10;;;;;;;9.29;58.99;101660.09;5036769;28;20108;-71
2022/05/15 05:45:14;;;;;;;14.60;3.30;;;;;;;9.31;58.90;101666.19;5035943;28;20064;-71
2022/05/15 05:47:40;;;;;;;14.23;2.80;;;;;;;9.38;58.52;101666.53;5036385;28;20231;-71
2022/05/15 05:50:08;;;;;;;9.38;2.78;;;;;;;9.50;58.18;101673.50;5036483;28;20442;-71
2022/05/15 05:52:39;;;;;;;12.98;2.53;;;;;;;9.55;58.64;101676.66;5036515;28;20057;-71
2022/05/15 05:55:07;;;;;;;10.13;2.78;;;;;;;9.55;58.43;101677.50;5035535;28;20091;-71
2022/05/15 05:57:34;;;;;;;11.38;2.95;;;;;;;9.61;58.67;101669.91;5035882;28;20088;-71
2022/05/15 06:00:00;;;;;;;12.15;3.17;;;;;;;9.63;58.61;101671.50;5036546;28;20128;-71
2022/05/15 06:02:27;;;;;;;7.80;2.22;;;;;;;9.57;57.84;101675.53;5036507;28;20057;-71
2022/05/15 06:04:53;;;;;;;8.95;2.33;;;;;;;9.64;57.15;101675.03;5035721;28;20450;-71
2022/05/15 06:07:23;;;;;;;12.80;2.28;;;;;;;9.69;57.22;101670.97;5036004;28;20541;-71
2022/05/15 06:09:50;;;;;;;8.65;2.20;;;;;;;9.71;56.64;101670.81;5035318;28;20488;-71
2022/05/15 06:12:19;;;;;;;11.85;2.20;;;;;;;9.76;56.62;101676.66;5035920;28;20132;-71
2022/05/15 06:14:46;;;;;;;17.80;2.92;;;;;;;9.86;56.41;101674.03;5035633;28;20064;-71
2022/05/15 06:17:21;;;;;;;8.43;1.95;;;;;;;9.92;56.25;101668.13;5035255;28;20049;-71
2022/05/15 06:19:48;;;;;;;8.60;2.63;;;;;;;10.00;55.96;101671.00;5035219;28;20109;-71
2022/05/15 06:22:14;;;;;;;14.07;2.60;;;;;;;10.16;55.97;101670.50;5035066;28;20152;-71
2022/05/15 06:24:41;;;;;;;7.35;2.30;;;;;;;10.25;56.20;101675.91;5034888;28;20140;-71
2022/05/15 06:27:10;;;;;;;9.38;2.55;;;;;;;10.34;55.74;101684.13;5035295;28;20080;-70
2022/05/15 06:29:38;;;;;;;13.00;2.33;;;;;;;10.40;54.86;101683.59;5034722;28;20139;-71
2022/05/15 06:32:06;;;;;;;8.10;1.98;;;;;;;10.45;54.29;101682.22;5035560;28;20092;-71
2022/05/15 06:34:32;;;;;;;19.20;7.13;;;;;;;10.60;53.95;101680.03;5036058;28;20132;-70
2022/05/15 06:36:59;;;;;;;8.23;3.03;;;;;;;10.52;53.25;101682.56;5035185;28;20136;-71
2022/05/15 06:39:25;;;;;;;8.88;2.08;;;;;;;10.57;53.15;101674.94;5035874;28;20144;-71
2022/05/15 06:41:56;;;;;;;12.93;2.25;;;;;;;10.60;52.60;101668.44;5035344;28;20446;-71
2022/05/15 06:44:22;;;;;;;10.27;1.83;;;;;;;10.79;52.41;101675.69;5035330;28;20053;-70
2022/05/15 06:46:49;;;;;;;10.90;2.13;;;;;;;10.91;52.47;101677.28;5035394;28;20049;-71
2022/05/15 06:49:15;;;;;;;8.73;1.55;;;;;;;11.08;51.78;101671.22;5034188;28;20477;-71
2022/05/15 06:51:43;;;;;;;9.90;2.50;;;;;;;11.35;51.10;101675.88;5034101;28;20056;-71
2022/05/15 06:54:10;;;;;;;11.40;2.28;;;;;;;11.60;50.73;101674.44;5033769;28;20128;-70
2022/05/15 06:59:22;;;;;;;9.05;1.63;;;;;;;12.26;48.67;101676.28;5033783;28;20083;-71
2022/05/15 07:01:48;;;;;;;6.97;1.77;;;;;;;12.33;48.21;101672.00;5033774;28;20160;-70
2022/05/15 07:04:15;;;;;;;7.82;2.17;;;;;;;12.45;46.83;101675.31;5033741;28;20464;-71
2022/05/15 07:06:41;;;;;;;7.72;1.70;;;;;;;12.99;45.80;101680.84;5016275;28;20156;-71
2022/05/15 07:09:08;;;;;;;6.95;2.10;;;;;;;13.21;45.65;101675.00;5034329;28;20049;-71
2022/05/15 07:11:34;;;;;;;12.27;2.10;;;;;;;13.84;44.50;101684.81;5034233;28;20085;-70
2022/05/15 07:14:01;;;;;;;13.48;1.85;;;;;;;14.27;43.39;101680.34;5016340;28;20088;-71
2022/05/15 07:16:27;;;;;;;5.38;1.48;;;;;;;14.28;42.88;101676.63;5033707;28;20084;-71
2022/05/15 07:18:53;;;;;;;9.80;2.00;;;;;;;14.61;42.59;101677.63;5033365;28;20068;-71
2022/05/15 07:21:20;;;;;;;8.10;1.90;;;;;;;15.00;41.44;101674.38;5034448;28;20064;-71
2022/05/15 07:23:47;;;;;;;6.78;1.67;;;;;;;15.41;40.53;101674.41;5038810;28;20132;-71
2022/05/15 07:26:13;;;;;;;7.63;1.92;;;;;;;15.84;39.90;101672.38;5039050;28;20489;-70
2022/05/15 07:28:39;;;;;;;4.50;1.45;;;;;;;16.11;39.11;101674.69;5038596;28;20133;-70
2022/05/15 07:31:06;;;;;;;8.57;1.55;;;;;;;16.76;37.45;101676.31;5038606;28;20077;-71
2022/05/15 07:33:32;;;;;;;7.47;1.95;;;;;;;16.56;37.66;101675.06;5038729;28;20136;-71
2022/05/15 07:35:59;;;;;;;10.18;1.98;;;;;;;16.62;37.41;101680.63;5038627;28;20081;-70
2022/05/15 07:38:25;;;;;;;8.25;2.17;;;;;;;17.05;36.92;101685.63;5038793;28;20063;-71
2022/05/15 07:40:52;;;;;;;9.32;2.58;;;;;;;17.19;36.52;101682.13;5038647;28;20105;-71
2022/05/15 07:43:19;;;;;;;6.97;2.03;;;;;;;17.46;35.64;101688.91;5038194;28;20477;-70
2022/05/15 07:45:46;;;;;;;7.07;1.95;;;;;;;17.91;34.76;101687.13;5038339;28;20095;-70
2022/05/15 07:48:12;;;;;;;5.65;1.73;;;;;;;17.90;34.45;101684.59;5038736;28;20543;-71
2022/05/15 07:50:39;;;;;;;9.50;1.95;;;;;;;18.01;34.27;101682.25;5038149;28;20091;-70
2022/05/15 07:53:05;;;;;;;6.78;2.10;;;;;;;18.26;33.69;101677.44;5038095;28;20144;-71
2022/05/15 07:55:32;;;;;;;6.55;1.73;;;;;;;18.28;33.87;101682.69;5037610;28;20073;-71
2022/05/15 07:57:58;;;;;;;11.85;2.20;;;;;;;21.05;29.21;101679.75;5038017;28;20520;-72
2022/05/15 08:00:26;;;;;;;7.00;1.58;;;;;;;21.27;28.60;101679.59;5037768;28;20552;-71
2022/05/15 08:03:08;;;;;;;7.05;1.90;;;;;;;19.68;30.56;101676.94;5039029;28;20168;-71
2022/05/15 08:08:23;;;;;;;9.20;2.22;;;;;;;19.05;31.91;101671.31;5037412;28;20049;-71
2022/05/15 08:10:50;;;;;;;6.10;2.17;;;;;;;19.54;30.84;101673.22;5035806;28;20144;-73
2022/05/15 08:13:21;;;;;;;5.93;1.90;;;;;;;19.26;31.59;101676.75;5037658;28;20547;-71
2022/05/15 08:15:48;;;;;;;8.25;2.20;;;;;;;19.21;31.43;101679.22;5038473;28;20077;-71
2022/05/15 08:23:53;;;;;;;7.88;1.83;;;;;;;18.97;31.50;101677.72;5037220;28;20140;-71
2022/05/15 08:26:20;;;;;;;10.13;2.00;;;;;;;22.05;26.58;101666.97;5037184;28;20493;-71
2022/05/15 08:28:47;;;;;;;5.78;1.58;;;;;;;22.04;26.52;101669.91;5036646;28;20084;-71
2022/05/15 08:31:14;;;;;;;4.88;1.70;;;;;;;19.30;30.42;101677.19;5036610;28;20049;-71
2022/05/15 08:33:41;;;;;;;7.05;1.90;;;;;;;19.58;30.31;101673.66;5036096;28;20084;-72
2022/05/15 08:36:08;;;;;;;11.73;1.98;;;;;;;19.47;30.47;101669.59;5037068;28;20465;-70
2022/05/15 08:38:36;;;;;;;5.82;2.08;;;;;;;19.75;29.59;101669.66;5036734;28;20059;-71
2022/05/15 08:41:30;;;;;;;4.65;1.40;;;;;;;19.27;30.55;101667.53;5036661;28;20535;-70
2022/05/15 08:44:29;;;;;;;4.55;1.48;;;;;;;19.60;29.89;101667.00;5037208;28;20132;-71
2022/05/15 08:47:23;;;;;;;6.57;1.83;;;;;;;19.70;29.27;101658.53;5036470;28;20050;-71
2022/05/15 08:50:04;;;;;;;8.18;2.00;;;;;;;20.28;28.45;101664.56;5035835;28;20144;-71
2022/05/15 08:52:59;;;;;;;8.13;2.00;;;;;;;20.10;28.88;101656.06;5037214;28;20103;-71
2022/05/15 08:55:44;;;;;;;5.45;1.58;;;;;;;20.67;28.10;101668.53;5035899;28;20084;-71
2022/05/15 08:58:37;;;;;;;6.22;1.70;;;;;;;20.47;29.20;101665.72;5035591;28;20132;-71
2022/05/15 09:01:05;;;;;;;8.93;2.00;;;;;;;21.01;27.98;101662.13;5035943;28;20125;-71
2022/05/15 09:03:35;;;;;;;4.25;1.45;;;;;;;21.54;26.80;101667.63;5035983;28;20049;-71
2022/05/15 09:06:07;;;;;;;7.90;1.55;;;;;;;21.23;27.24;101667.41;5036018;28;20076;-71
2022/05/15 09:08:51;;;;;;;5.43;2.03;;;;;;;21.27;27.19;101663.22;5035457;28;20136;-70
2022/05/15 09:11:55;;;;;;;3.53;2.03;;;;;;;21.18;26.96;101661.72;5035698;28;20076;-71
2022/05/15 09:14:39;;;;;;;9.00;4.25;;;;;;;21.50;26.92;101665.53;5022919;28;20476;-71
2022/05/15 09:17:16;;;;;;;5.88;2.15;;;;;;;21.50;26.96;101676.47;5035552;28;20144;-71
2022/05/15 09:19:44;;;;;;;12.50;1.80;;;;;;;21.88;26.40;101663.03;5035357;28;20141;-70
2022/05/15 09:22:13;;;;;;;4.88;1.50;;;;;;;20.26;28.13;101657.63;5035828;28;20140;-71
2022/05/15 09:24:45;;;;;;;7.07;1.90;;;;;;;21.16;26.68;101653.75;5034958;28;20136;-70
2022/05/15 09:27:19;;;;;;;3.35;1.35;;;;;;;21.72;26.18;101655.22;5036321;28;20136;-70
2022/05/15 09:29:53;;;;;;;4.28;1.90;;;;;;;22.01;25.87;101659.41;5035373;28;20413;-72
2022/05/15 09:32:41;;;;;;;4.65;1.88;;;;;;;21.33;25.45;101652.31;5035354;28;20092;-71
2022/05/15 09:35:41;;;;;;;6.25;1.95;;;;;;;21.87;24.90;101647.66;5035249;28;20053;-70
2022/05/15 09:38:27;;;;;;;5.68;1.52;;;;;;;21.67;25.33;101641.34;5035750;28;20045;-70
2022/05/15 09:43:55;;;;;;;3.97;1.13;;;;;;;22.07;24.73;101636.69;5035468;28;20077;-70
2022/05/15 09:46:25;;;;;;;4.72;1.67;;;;;;;21.85;25.23;101638.88;5034318;28;20136;-71
2022/05/15 09:49:00;;;;;;;8.25;2.00;;;;;;;21.54;24.83;101634.88;5035513;28;20416;-71
2022/05/15 09:51:37;;;;;;;6.22;1.48;;;;;;;21.51;24.73;101629.00;5035918;28;20061;-70
2022/05/15 09:54:04;;;;;;;5.03;1.63;;;;;;;22.31;24.42;101632.41;5035838;28;20049;-71
2022/05/15 09:56:34;;;;;;;3.88;1.45;;;;;;;23.00;22.53;101639.00;5036293;28;20052;-71
2022/05/15 09:59:09;;;;;;;2.22;1.00;;;;;;;23.00;21.71;101641.75;5035696;28;20045;-71
2022/05/15 10:01:47;;;;;;;6.80;1.10;;;;;;;22.19;22.03;101639.63;5035149;28;20054;-71
2022/05/15 10:04:25;;;;;;;4.00;1.00;;;;;;;21.53;22.30;101635.09;5035046;28;20049;-71
2022/05/15 10:06:52;;;;;;;3.70;1.10;;;;;;;21.09;23.27;101636.50;5035093;28;20148;-71
2022/05/15 10:09:25;;;;;;;5.65;1.90;;;;;;;21.58;24.12;101638.03;5035041;28;20049;-71
2022/05/15 10:11:59;;;;;;;3.90;1.10;;;;;;;22.09;24.26;101632.69;5035440;28;20452;-71
2022/05/15 10:27:49;;;;;;;4.53;1.73;;;;;;;21.42;24.92;101614.72;5007820;28;20050;-72
2022/05/15 10:30:21;;;;;;;2.40;1.30;;;;;;;22.06;23.72;101607.69;5015146;28;20049;-72
2022/05/15 10:33:20;;;;;;;6.25;1.95;;;;;;;21.94;23.63;101603.94;5014755;28;20061;-72
2022/05/15 10:35:56;;;;;;;5.25;1.70;;;;;;;21.69;24.30;101603.75;4972104;28;20088;-72
2022/05/15 10:38:30;;;;;;;4.53;1.70;;;;;;;22.79;23.09;101597.25;5015645;28;20141;-72
2022/05/15 10:41:26;;;;;;;7.05;1.38;;;;;;;22.87;22.74;101593.41;5015367;28;20088;-72
2022/05/15 10:44:34;;;;;;;2.53;1.30;;;;;;;22.05;23.45;101578.72;5015520;28;20122;-73
2022/05/15 10:47:12;;;;;;;5.95;1.80;;;;;;;22.23;23.66;101587.03;5015161;28;20045;-72
2022/05/15 10:50:12;;;;;;;2.85;1.55;;;;;;;21.85;22.94;101585.06;5015617;28;20469;-72
2022/05/15 10:59:12;;;;;;;4.47;2.13;;;;;;;20.77;25.44;101586.31;5014762;28;20089;-71
2022/05/15 11:01:57;;;;;;;8.23;1.77;;;;;;;20.96;25.47;101592.84;5015394;28;20078;-71
2022/05/15 11:04:48;;;;;;;5.45;1.60;;;;;;;19.98;26.29;101582.25;4998100;28;20052;-71
2022/05/15 11:07:29;;;;;;;3.80;1.10;;;;;;;19.82;26.27;101585.28;5015122;28;20525;-72
2022/05/15 11:10:14;;;;;;;4.97;1.50;;;;;;;19.22;26.90;101582.13;5014461;28;20084;-72
2022/05/15 11:12:59;;;;;;;7.70;1.75;;;;;;;19.46;26.61;101578.13;5014647;28;20111;-72
2022/05/15 11:15:44;;;;;;;5.28;1.52;;;;;;;19.51;26.46;101581.06;5014941;28;20132;-72
2022/05/15 11:18:32;;;;;;;4.78;1.20;;;;;;;19.65;26.67;101582.84;5014230;28;20106;-72
2022/05/15 11:21:04;;;;;;;4.50;1.27;;;;;;;19.44;26.62;101581.03;5014877;28;20072;-73
2022/05/15 11:23:42;;;;;;;3.95;1.45;;;;;;;19.67;26.87;101574.50;5014433;28;20074;-72
2022/05/15 11:26:35;;;;;;;4.03;1.23;;;;;;;20.27;26.37;101575.66;5014328;28;20512;-72
2022/05/15 11:29:08;;;;;;;8.18;1.50;;;;;;;20.90;25.44;101573.56;5015383;28;20042;-72
2022/05/15 11:31:42;;;;;;;4.65;1.20;;;;;;;20.84;24.95;101573.53;5015577;28;20133;-72
2022/05/15 11:34:09;;;;;;;4.72;1.60;;;;;;;21.28;24.42;101567.47;5015431;28;20145;-72
2022/05/15 11:36:42;;;;;;;6.13;1.50;;;;;;;21.71;23.49;101569.72;5014280;28;20141;-72
2022/05/15 11:39:15;;;;;;;5.53;1.80;;;;;;;21.17;23.70;101567.28;5014242;28;20054;-72
2022/05/15 11:41:44;;;;;;;3.67;1.55;;;;;;;20.81;24.28;101566.59;5014884;28;20062;-72
2022/05/15 11:44:14;;;;;;;5.07;1.27;;;;;;;20.20;24.85;101558.44;5013833;28;20085;-72
2022/05/15 11:46:50;;;;;;;3.70;1.52;;;;;;;19.33;25.19;101557.09;5014004;28;20550;-72
2022/05/15 11:49:39;;;;;;;5.25;1.50;;;;;;;18.72;26.39;101563.03;5014443;28;20136;-71
2022/05/15 11:52:06;;;;;;;6.70;1.35;;;;;;;18.36;26.92;101557.63;5013967;28;20097;-71
2022/05/15 11:54:37;;;;;;;2.72;1.17;;;;;;;18.17;27.75;101550.06;5013757;28;20115;-72
2022/05/15 11:57:08;;;;;;;3.70;0.85;;;;;;;18.02;27.90;101552.78;5014075;28;20076;-72
2022/05/15 11:59:39;;;;;;;4.30;1.00;;;;;;;17.52;28.12;101554.41;5014651;28;20053;-72
2022/05/15 12:02:20;;;;;;;1.60;1.00;;;;;;;17.54;28.81;101553.16;5014309;28;20281;-72
2022/05/15 12:05:10;;;;;;;5.70;1.50;;;;;;;17.64;28.11;101558.31;5015309;28;20497;-73
2022/05/15 12:08:07;;;;;;;3.10;1.17;;;;;;;17.79;28.29;101545.59;5014660;28;20078;-72
2022/05/15 12:10:34;;;;;;;4.22;1.20;;;;;;;17.90;28.73;101544.28;5017029;28;20108;-71
2022/05/15 12:13:12;;;;;;;2.30;1.08;;;;;;;17.73;28.29;101531.94;5017894;28;20145;-72
2022/05/15 12:15:46;;;;;;;3.92;1.38;;;;;;;17.92;28.96;101534.06;5017303;28;20049;-72